createdAt,value
2018-07-27T00:00:54.638Z,19.70
2018-07-27T00:03:28.091Z,19.70
2018-07-27T00:06:01.520Z,19.60
2018-07-27T00:08:34.932Z,19.60
2018-07-27T00:11:08.422Z,19.60
2018-07-27T00:13:41.834Z,19.60
2018-07-27T00:16:15.302Z,19.60
2018-07-27T00:18:48.714Z,19.60
2018-07-27T00:21:22.199Z,19.50
2018-07-27T00:23:55.616Z,19.40
2018-07-27T00:26:29.245Z,19.40
2018-07-27T00:29:02.644Z,19.40
2018-07-27T00:31:36.064Z,19.40
2018-07-27T00:34:09.550Z,19.40
2018-07-27T00:36:42.979Z,19.40
2018-07-27T00:39:16.426Z,19.40
2018-07-27T00:41:49.872Z,19.30
2018-07-27T00:44:23.304Z,19.20
2018-07-27T00:46:56.763Z,19.20
2018-07-27T00:49:30.202Z,19.20
2018-07-27T00:52:03.642Z,19.10
2018-07-27T00:54:37.073Z,19.10
2018-07-27T00:57:10.480Z,19.10
2018-07-27T00:59:43.943Z,19.00
2018-07-27T01:02:17.356Z,19.00
2018-07-27T01:04:50.885Z,19.00
2018-07-27T01:07:24.348Z,19.00
2018-07-27T01:09:57.791Z,18.90
2018-07-27T01:12:31.209Z,18.90
2018-07-27T01:15:05.241Z,18.90
2018-07-27T01:17:38.674Z,19.00
2018-07-27T01:20:12.088Z,18.90
2018-07-27T01:22:45.575Z,19.00
2018-07-27T01:25:19.023Z,18.90
2018-07-27T01:27:52.489Z,18.90
2018-07-27T01:30:25.903Z,18.80
2018-07-27T01:32:59.365Z,18.80
2018-07-27T01:35:32.779Z,18.70
2018-07-27T01:38:06.206Z,18.70
2018-07-27T01:40:39.606Z,18.70
2018-07-27T01:43:13.032Z,18.50
2018-07-27T01:45:46.456Z,18.60
2018-07-27T01:48:19.893Z,18.50
2018-07-27T01:50:53.814Z,18.60
2018-07-27T01:53:27.215Z,18.50
2018-07-27T01:56:00.690Z,18.30
2018-07-27T01:58:34.097Z,18.40
2018-07-27T02:01:07.567Z,18.30
2018-07-27T02:03:40.970Z,18.40
2018-07-27T02:06:14.384Z,18.40
2018-07-27T02:08:47.793Z,18.40
2018-07-27T02:11:21.250Z,18.40
2018-07-27T02:13:54.706Z,18.50
2018-07-27T02:16:28.178Z,18.50
2018-07-27T02:19:01.621Z,18.50
2018-07-27T02:21:35.057Z,18.40
2018-07-27T02:24:08.480Z,18.30
2018-07-27T02:26:41.933Z,18.30
2018-07-27T02:29:15.349Z,18.30
2018-07-27T02:31:48.792Z,18.30
2018-07-27T02:34:22.221Z,18.20
2018-07-27T02:36:55.669Z,18.20
2018-07-27T02:39:29.101Z,18.20
2018-07-27T02:42:02.518Z,18.20
2018-07-27T02:44:35.965Z,18.20
2018-07-27T02:47:09.360Z,18.20
2018-07-27T02:49:42.798Z,18.00
2018-07-27T02:52:16.201Z,18.00
2018-07-27T02:54:49.644Z,18.00
2018-07-27T02:57:23.064Z,18.00
2018-07-27T02:59:56.576Z,18.10
2018-07-27T03:02:29.950Z,18.00
2018-07-27T03:05:03.466Z,18.00
2018-07-27T03:07:37.200Z,18.00
2018-07-27T03:10:10.668Z,18.00
2018-07-27T03:12:44.103Z,17.90
2018-07-27T03:15:17.544Z,17.90
2018-07-27T03:17:50.953Z,17.80
2018-07-27T03:20:24.374Z,17.80
2018-07-27T03:22:57.762Z,17.80
2018-07-27T03:25:31.197Z,17.80
2018-07-27T03:28:04.622Z,17.80
2018-07-27T03:30:38.050Z,17.80
2018-07-27T03:33:11.482Z,17.80
2018-07-27T03:35:44.935Z,17.80
2018-07-27T03:38:18.468Z,17.70
2018-07-27T03:40:51.787Z,17.70
2018-07-27T03:43:25.236Z,17.70
2018-07-27T03:45:58.677Z,17.70
2018-07-27T03:48:32.132Z,17.70
2018-07-27T03:51:05.529Z,17.70
2018-07-27T03:53:38.964Z,17.70
2018-07-27T03:56:12.392Z,17.70
2018-07-27T03:58:45.844Z,17.60
2018-07-27T04:01:19.308Z,17.70
2018-07-27T04:03:52.752Z,17.70
2018-07-27T04:06:26.159Z,17.70
2018-07-27T04:08:59.596Z,17.70
2018-07-27T04:11:32.992Z,17.70
2018-07-27T04:14:06.676Z,17.70
2018-07-27T04:16:40.129Z,17.80
2018-07-27T04:19:13.587Z,17.80
2018-07-27T04:21:46.982Z,17.80
2018-07-27T04:24:20.407Z,17.90
2018-07-27T04:26:53.868Z,17.70
2018-07-27T04:29:27.299Z,17.60
2018-07-27T04:32:00.730Z,17.70
2018-07-27T04:34:34.171Z,17.70
2018-07-27T04:37:08.224Z,17.70
2018-07-27T04:39:41.665Z,17.80
2018-07-27T04:42:15.057Z,17.80
2018-07-27T04:44:48.525Z,17.90
2018-07-27T04:47:22.010Z,18.00
2018-07-27T04:49:55.452Z,18.00
2018-07-27T04:52:29.251Z,18.00
2018-07-27T04:55:02.720Z,18.00
2018-07-27T04:57:36.117Z,18.10
2018-07-27T05:00:09.650Z,18.10
2018-07-27T05:02:43.092Z,18.30
2018-07-27T05:05:16.729Z,18.40
2018-07-27T05:07:50.160Z,18.30
2018-07-27T05:10:27.873Z,18.40
2018-07-27T05:13:01.589Z,18.50
2018-07-27T05:15:35.243Z,18.70
2018-07-27T05:18:08.725Z,19.00
2018-07-27T05:20:42.493Z,19.20
2018-07-27T05:23:15.937Z,19.40
2018-07-27T05:25:49.433Z,19.50
2018-07-27T05:28:22.902Z,19.70
2018-07-27T05:30:56.354Z,20.20
2018-07-27T05:33:30.683Z,20.80
2018-07-27T05:36:04.138Z,21.70
2018-07-27T05:38:37.679Z,22.50
2018-07-27T05:41:11.136Z,23.10
2018-07-27T05:43:44.604Z,23.90
2018-07-27T05:46:18.029Z,24.80
2018-07-27T05:48:51.489Z,25.30
2018-07-27T05:51:24.947Z,25.80
2018-07-27T05:53:58.440Z,26.20
2018-07-27T05:56:31.898Z,26.90
2018-07-27T05:59:05.439Z,27.20
2018-07-27T06:01:38.932Z,27.80
2018-07-27T06:04:12.380Z,27.70
2018-07-27T06:06:45.812Z,27.60
2018-07-27T06:09:19.261Z,28.00
2018-07-27T06:11:52.732Z,28.10
2018-07-27T06:14:26.198Z,28.30
2018-07-27T06:16:59.625Z,28.30
2018-07-27T06:19:33.172Z,29.30
2018-07-27T06:22:06.812Z,29.00
2018-07-27T06:24:48.336Z,29.20
2018-07-27T06:27:21.829Z,29.20
2018-07-27T06:29:55.369Z,29.60
2018-07-27T06:32:28.772Z,30.00
2018-07-27T06:35:02.311Z,30.40
2018-07-27T06:37:35.748Z,30.30
2018-07-27T06:40:09.280Z,30.50
2018-07-27T06:42:42.699Z,30.80
2018-07-27T06:45:16.246Z,31.50
2018-07-27T06:47:49.665Z,31.20
2018-07-27T06:50:23.134Z,31.80
2018-07-27T06:52:56.618Z,32.20
2018-07-27T06:55:30.329Z,32.20
2018-07-27T06:58:03.793Z,32.20
2018-07-27T07:00:37.290Z,32.30
2018-07-27T07:03:10.814Z,33.00
2018-07-27T07:05:44.272Z,33.10
2018-07-27T07:08:17.759Z,33.60
2018-07-27T07:10:51.196Z,33.90
2018-07-27T07:13:24.663Z,34.20
2018-07-27T07:15:58.045Z,33.70
2018-07-27T07:18:31.492Z,34.10
2018-07-27T07:21:05.124Z,34.00
2018-07-27T07:23:38.632Z,34.00
2018-07-27T07:26:12.456Z,34.10
2018-07-27T07:28:45.502Z,34.10
2018-07-27T07:31:19.813Z,34.00
2018-07-27T07:33:53.265Z,34.60
2018-07-27T07:38:59.793Z,34.80
2018-07-27T07:41:33.252Z,34.90
2018-07-27T07:44:07.126Z,35.20
2018-07-27T07:46:40.910Z,35.10
2018-07-27T07:49:14.432Z,35.10
2018-07-27T07:51:47.839Z,35.50
2018-07-27T07:54:21.334Z,35.80
2018-07-27T07:56:54.750Z,35.70
2018-07-27T07:59:28.262Z,36.40
2018-07-27T08:02:01.706Z,35.80
2018-07-27T08:04:35.192Z,35.70
2018-07-27T08:07:08.669Z,35.80
2018-07-27T08:09:42.121Z,36.00
2018-07-27T08:12:15.597Z,36.50
2018-07-27T08:14:49.116Z,36.50
2018-07-27T08:17:22.580Z,36.10
2018-07-27T08:19:56.005Z,36.30
2018-07-27T08:22:29.471Z,36.90
2018-07-27T08:25:02.956Z,36.30
2018-07-27T08:27:36.374Z,36.20
2018-07-27T08:30:14.314Z,35.90
2018-07-27T08:32:47.784Z,35.00
2018-07-27T08:35:21.420Z,35.20
2018-07-27T08:37:54.952Z,35.30
2018-07-27T08:40:28.456Z,35.50
2018-07-27T08:43:01.937Z,35.60
2018-07-27T08:45:35.381Z,35.50
2018-07-27T08:48:08.940Z,35.10
2018-07-27T08:50:42.390Z,34.60
2018-07-27T08:53:15.875Z,35.00
2018-07-27T08:55:49.337Z,34.90
2018-07-27T08:58:22.776Z,34.90
2018-07-27T09:00:57.016Z,34.90
2018-07-27T09:03:30.606Z,34.50
2018-07-27T09:06:04.380Z,34.30
2018-07-27T09:08:38.342Z,33.90
2018-07-27T09:11:18.465Z,34.00
2018-07-27T09:13:52.542Z,34.00
2018-07-27T09:16:26.036Z,34.10
2018-07-27T09:18:59.491Z,34.30
2018-07-27T09:21:33.049Z,34.40
2018-07-27T09:24:06.511Z,34.40
2018-07-27T09:26:39.976Z,34.30
2018-07-27T09:29:13.431Z,34.30
2018-07-27T09:31:47.000Z,34.60
2018-07-27T09:34:20.428Z,34.60
2018-07-27T09:36:53.901Z,34.50
2018-07-27T09:39:27.352Z,34.30
2018-07-27T09:42:00.856Z,34.20
2018-07-27T09:44:34.457Z,33.80
2018-07-27T09:47:07.930Z,33.70
2018-07-27T09:49:41.349Z,33.50
2018-07-27T09:52:14.799Z,33.50
2018-07-27T09:54:48.213Z,33.90
2018-07-27T09:57:21.706Z,34.00
2018-07-27T09:59:55.208Z,34.00
2018-07-27T10:05:01.817Z,34.20
2018-07-27T10:07:35.294Z,33.90
2018-07-27T10:10:08.738Z,34.00
2018-07-27T10:12:42.236Z,33.90
2018-07-27T10:15:15.704Z,33.60
2018-07-27T10:17:49.494Z,33.90
2018-07-27T10:20:22.968Z,34.10
2018-07-27T10:22:56.411Z,33.80
2018-07-27T10:25:30.138Z,33.80
2018-07-27T10:28:03.639Z,33.90
2018-07-27T10:30:37.116Z,34.10
2018-07-27T10:33:10.576Z,33.80
2018-07-27T10:35:44.033Z,33.40
2018-07-27T10:38:17.740Z,33.40
2018-07-27T10:40:51.204Z,33.60
2018-07-27T10:43:24.701Z,33.60
2018-07-27T10:45:58.178Z,33.20
2018-07-27T10:48:31.642Z,32.90
2018-07-27T10:51:05.106Z,32.50
2018-07-27T10:56:11.709Z,32.10
2018-07-27T10:58:45.191Z,31.90
2018-07-27T11:01:18.676Z,31.90
2018-07-27T11:03:52.120Z,31.60
2018-07-27T11:06:25.789Z,31.60
2018-07-27T11:08:59.315Z,31.50
2018-07-27T11:11:32.748Z,31.50
2018-07-27T11:14:06.207Z,31.80
2018-07-27T11:16:39.701Z,31.80
2018-07-27T11:19:13.160Z,31.80
2018-07-27T11:21:46.631Z,32.00
2018-07-27T11:24:20.130Z,31.90
2018-07-27T11:26:53.593Z,31.90
2018-07-27T11:29:27.034Z,32.00
2018-07-27T11:32:00.482Z,32.20
2018-07-27T11:34:33.926Z,32.00
2018-07-27T11:37:07.459Z,31.90
2018-07-27T11:39:40.943Z,31.90
2018-07-27T11:42:14.461Z,31.80
2018-07-27T11:44:47.905Z,31.90
2018-07-27T11:47:21.378Z,31.90
2018-07-27T11:49:54.873Z,32.10
2018-07-27T11:52:28.333Z,32.10
2018-07-27T11:55:01.828Z,32.20
2018-07-27T11:57:35.361Z,32.40
2018-07-27T12:00:08.857Z,32.40
2018-07-27T12:02:42.366Z,32.40
2018-07-27T12:05:15.828Z,32.50
2018-07-27T12:07:49.337Z,32.50
2018-07-27T12:10:23.301Z,32.70
2018-07-27T12:12:57.297Z,32.60
2018-07-27T12:15:32.061Z,32.70
2018-07-27T12:18:05.675Z,32.60
2018-07-27T12:20:39.544Z,32.50
2018-07-27T12:23:13.156Z,32.50
2018-07-27T12:25:46.811Z,32.40
2018-07-27T12:28:20.280Z,32.30
2018-07-27T12:30:54.248Z,32.20
2018-07-27T12:33:27.719Z,32.00
2018-07-27T12:36:03.834Z,32.00
2018-07-27T12:38:37.303Z,31.90
2018-07-27T12:41:10.752Z,31.70
2018-07-27T12:43:44.376Z,31.60
2018-07-27T12:46:18.726Z,31.50
2018-07-27T12:48:52.208Z,31.50
2018-07-27T12:51:25.749Z,31.40
2018-07-27T12:53:59.211Z,31.40
2018-07-27T12:56:32.634Z,31.30
2018-07-27T12:59:06.202Z,31.60
2018-07-27T13:01:39.656Z,31.70
2018-07-27T13:04:13.135Z,31.70
2018-07-27T13:06:46.620Z,31.80
2018-07-27T13:09:20.108Z,31.70
2018-07-27T13:11:53.581Z,31.60
2018-07-27T13:14:27.103Z,31.50
2018-07-27T13:17:00.542Z,31.50
2018-07-27T13:19:34.152Z,31.40
2018-07-27T13:22:07.711Z,31.30
2018-07-27T13:27:14.659Z,31.20
2018-07-27T13:29:48.125Z,31.20
2018-07-27T13:32:21.664Z,31.10
2018-07-27T13:34:58.142Z,30.90
2018-07-27T13:37:32.716Z,30.80
2018-07-27T13:40:06.514Z,30.80
2018-07-27T13:42:41.158Z,30.70
2018-07-27T13:45:14.849Z,30.80
2018-07-27T13:47:48.701Z,30.80
2018-07-27T13:50:22.647Z,30.90
2018-07-27T13:52:56.474Z,30.90
2018-07-27T13:55:30.061Z,30.80
2018-07-27T13:58:03.597Z,30.80
2018-07-27T14:00:37.062Z,30.80
2018-07-27T14:03:10.559Z,30.70
2018-07-27T14:05:43.996Z,30.80
2018-07-27T14:08:17.827Z,30.80
2018-07-27T14:10:51.565Z,30.80
2018-07-27T14:13:26.116Z,30.80
2018-07-27T14:15:59.738Z,30.70
2018-07-27T14:18:35.177Z,30.70
2018-07-27T14:21:08.800Z,30.70
2018-07-27T14:23:42.346Z,30.70
2018-07-27T14:26:16.023Z,30.70
2018-07-27T14:28:49.841Z,30.80
2018-07-27T14:31:24.171Z,30.80
2018-07-27T14:33:57.734Z,30.80
2018-07-27T14:36:31.663Z,30.70
2018-07-27T14:39:08.092Z,30.80
2018-07-27T14:41:42.346Z,30.70
2018-07-27T14:44:15.961Z,30.90
2018-07-27T14:46:49.423Z,30.80
2018-07-27T14:49:23.016Z,30.70
2018-07-27T14:51:56.599Z,30.70
2018-07-27T14:54:30.041Z,30.80
2018-07-27T14:57:03.590Z,30.80
2018-07-27T14:59:37.162Z,30.80
2018-07-27T15:02:11.595Z,30.80
2018-07-27T15:04:45.135Z,30.90
2018-07-27T15:07:19.116Z,30.90
2018-07-27T15:09:52.857Z,31.00
2018-07-27T15:12:26.822Z,31.00
2018-07-27T15:15:00.411Z,31.00
2018-07-27T15:17:34.095Z,31.00
2018-07-27T15:20:07.599Z,30.90
2018-07-27T15:22:41.394Z,30.90
2018-07-27T15:25:14.891Z,30.90
2018-07-27T15:27:48.460Z,31.00
2018-07-27T15:30:22.039Z,31.00
2018-07-27T15:32:55.870Z,30.90
2018-07-27T15:35:29.633Z,30.90
2018-07-27T15:38:03.410Z,30.90
2018-07-27T15:40:37.075Z,31.00
2018-07-27T15:43:11.877Z,31.00
2018-07-27T15:45:45.528Z,31.10
2018-07-27T15:48:19.390Z,31.10
2018-07-27T15:50:53.280Z,31.20
2018-07-27T15:53:27.607Z,31.20
2018-07-27T15:56:01.433Z,31.10
2018-07-27T15:58:35.128Z,31.20
2018-07-27T16:01:08.967Z,31.20
2018-07-27T16:03:43.493Z,31.20
2018-07-27T16:06:17.190Z,31.20
2018-07-27T16:08:51.094Z,31.20
2018-07-27T16:11:24.853Z,31.10
2018-07-27T16:13:59.534Z,31.10
2018-07-27T16:16:33.136Z,31.20
2018-07-27T16:19:06.684Z,31.30
2018-07-27T16:21:40.519Z,31.40
2018-07-27T16:24:14.817Z,31.40
2018-07-27T16:26:48.473Z,31.50
2018-07-27T16:29:22.417Z,31.50
2018-07-27T16:31:56.412Z,31.70
2018-07-27T16:34:34.250Z,31.80
2018-07-27T16:37:07.997Z,31.90
2018-07-27T16:39:41.620Z,31.80
2018-07-27T16:42:14.988Z,32.00
2018-07-27T16:44:48.701Z,32.10
2018-07-27T16:47:22.152Z,31.90
2018-07-27T16:49:55.609Z,31.80
2018-07-27T16:52:29.107Z,31.70
2018-07-27T16:55:02.638Z,31.60
2018-07-27T16:57:36.083Z,31.50
2018-07-27T17:00:09.607Z,31.40
2018-07-27T17:02:43.116Z,31.40
2018-07-27T17:05:16.576Z,31.30
2018-07-27T17:07:50.060Z,31.20
2018-07-27T17:10:23.516Z,31.10
2018-07-27T17:12:58.686Z,30.90
2018-07-27T17:18:05.272Z,30.60
2018-07-27T17:20:38.797Z,30.40
2018-07-27T17:23:12.859Z,30.20
2018-07-27T17:26:49.396Z,30.20
2018-07-27T17:29:22.846Z,30.10
2018-07-27T17:31:56.296Z,29.80
2018-07-27T17:34:29.752Z,29.60
2018-07-27T17:37:03.339Z,29.50
2018-07-27T17:39:36.784Z,29.40
2018-07-27T17:42:10.245Z,29.30
2018-07-27T17:44:43.718Z,29.30
2018-07-27T17:47:17.221Z,29.20
2018-07-27T17:49:50.685Z,29.10
2018-07-27T17:52:24.149Z,29.00
2018-07-27T17:54:57.673Z,29.00
2018-07-27T17:57:31.128Z,29.00
2018-07-27T18:00:05.198Z,28.80
2018-07-27T18:02:39.094Z,28.80
2018-07-27T18:05:12.588Z,28.70
2018-07-27T18:07:46.181Z,28.60
2018-07-27T18:10:19.509Z,28.60
2018-07-27T18:12:53.017Z,28.50
2018-07-27T18:15:26.475Z,28.50
2018-07-27T18:17:59.956Z,28.30
2018-07-27T18:20:33.434Z,28.30
2018-07-27T18:23:06.957Z,28.30
2018-07-27T18:28:13.544Z,28.10
2018-07-27T18:30:47.033Z,28.10
2018-07-27T18:33:20.556Z,28.00
2018-07-27T18:35:54.144Z,28.00
2018-07-27T18:38:27.599Z,27.90
2018-07-27T18:41:01.132Z,27.80
2018-07-27T18:43:34.605Z,27.80
2018-07-27T18:46:08.287Z,27.70
2018-07-27T18:48:41.744Z,27.60
2018-07-27T18:51:15.168Z,27.50
2018-07-27T18:53:48.665Z,27.50
2018-07-27T18:56:22.150Z,27.40
2018-07-27T18:59:02.094Z,27.30
2018-07-27T19:01:35.615Z,27.30
2018-07-27T19:04:09.103Z,27.20
2018-07-27T19:06:42.637Z,27.10
2018-07-27T19:09:16.052Z,27.10
2018-07-27T19:11:49.525Z,27.00
2018-07-27T19:14:22.966Z,26.90
2018-07-27T19:16:56.421Z,26.90
2018-07-27T19:19:29.838Z,26.80
2018-07-27T19:22:03.375Z,26.70
2018-07-27T19:24:36.885Z,26.60
2018-07-27T19:27:10.422Z,26.60
2018-07-27T19:29:43.876Z,26.50
2018-07-27T19:32:17.365Z,26.30
2018-07-27T19:34:50.856Z,26.30
2018-07-27T19:37:24.330Z,26.20
2018-07-27T19:39:57.773Z,26.10
2018-07-27T19:42:31.370Z,26.10
2018-07-27T19:45:05.740Z,26.00
2018-07-27T19:47:39.192Z,25.90
2018-07-27T19:50:12.649Z,25.80
2018-07-27T19:52:46.205Z,25.80
2018-07-27T19:55:19.685Z,25.70
2018-07-27T19:57:53.399Z,25.70
2018-07-27T20:00:26.995Z,25.60
2018-07-27T20:03:00.493Z,25.50
2018-07-27T20:05:37.255Z,25.50
2018-07-27T20:08:11.878Z,25.40
2018-07-27T20:10:45.994Z,25.30
2018-07-27T20:13:19.504Z,25.20
2018-07-27T20:15:53.033Z,25.10
2018-07-27T20:18:26.553Z,25.00
2018-07-27T20:21:00.013Z,24.90
2018-07-27T20:23:33.544Z,24.80
2018-07-27T20:26:07.030Z,24.70
2018-07-27T20:28:40.559Z,24.60
2018-07-27T20:31:14.012Z,24.50
2018-07-27T20:33:47.477Z,24.50
2018-07-27T20:36:21.013Z,24.40
2018-07-27T20:38:54.585Z,24.40
2018-07-27T20:41:28.107Z,24.30
2018-07-27T20:44:01.633Z,24.20
2018-07-27T20:46:35.087Z,24.20
2018-07-27T20:49:08.883Z,24.10
2018-07-27T20:51:42.384Z,24.10
2018-07-27T20:54:15.967Z,24.10
2018-07-27T20:56:49.451Z,24.00
2018-07-27T20:59:22.964Z,23.90
2018-07-27T21:01:56.489Z,23.90
2018-07-27T21:04:29.977Z,23.80
2018-07-27T21:07:03.432Z,23.80
2018-07-27T21:09:36.865Z,23.70
2018-07-27T21:12:10.389Z,23.60
2018-07-27T21:14:43.862Z,23.60
2018-07-27T21:17:17.400Z,23.50
2018-07-27T21:19:50.849Z,23.50
2018-07-27T21:22:24.341Z,23.40
2018-07-27T21:24:57.771Z,23.40
2018-07-27T21:27:31.339Z,23.30
2018-07-27T21:30:05.618Z,23.30
2018-07-27T21:32:39.079Z,23.20
2018-07-27T21:35:12.650Z,23.20
2018-07-27T21:37:46.660Z,23.10
2018-07-27T21:40:20.121Z,23.10
2018-07-27T21:42:53.620Z,23.00
2018-07-27T21:45:27.073Z,23.00
2018-07-27T21:48:01.919Z,22.90
2018-07-27T21:50:35.548Z,22.90
2018-07-27T21:53:09.150Z,22.80
2018-07-27T21:55:42.664Z,22.80
2018-07-27T21:58:16.216Z,22.80
2018-07-27T22:00:49.982Z,22.70
2018-07-27T22:03:23.441Z,22.70
2018-07-27T22:05:56.900Z,22.60
2018-07-27T22:08:30.420Z,22.60
2018-07-27T22:11:03.933Z,22.50
2018-07-27T22:13:37.430Z,22.50
2018-07-27T22:16:10.861Z,22.50
2018-07-27T22:18:44.339Z,22.40
2018-07-27T22:21:17.820Z,22.30
2018-07-27T22:23:51.273Z,22.30
2018-07-27T22:26:24.761Z,22.30
2018-07-27T22:28:58.257Z,22.30
2018-07-27T22:31:31.689Z,22.20
2018-07-27T22:34:05.213Z,22.20
2018-07-27T22:36:38.711Z,22.10
2018-07-27T22:39:12.193Z,22.10
2018-07-27T22:41:45.646Z,22.00
2018-07-27T22:44:19.049Z,22.00
2018-07-27T22:46:52.565Z,22.00
2018-07-27T22:49:25.991Z,22.00
2018-07-27T22:51:59.481Z,22.00
2018-07-27T22:54:32.946Z,21.90
2018-07-27T22:57:06.786Z,21.90
2018-07-27T22:59:40.246Z,21.90
2018-07-27T23:02:13.735Z,21.80
2018-07-27T23:04:47.205Z,21.70
2018-07-27T23:07:20.692Z,21.70
2018-07-27T23:09:54.154Z,21.70
2018-07-27T23:12:27.639Z,21.70
2018-07-27T23:15:01.119Z,21.70
2018-07-27T23:17:34.603Z,21.60
2018-07-27T23:20:11.902Z,21.50
2018-07-27T23:22:45.340Z,21.50
2018-07-27T23:25:18.826Z,21.50
2018-07-27T23:27:52.265Z,21.40
2018-07-27T23:30:25.702Z,21.40
2018-07-27T23:32:59.129Z,21.40
2018-07-27T23:35:32.556Z,21.30
2018-07-27T23:38:06.035Z,21.30
2018-07-27T23:40:39.519Z,21.20
2018-07-27T23:43:12.997Z,21.20
2018-07-27T23:45:46.401Z,21.10
2018-07-27T23:48:19.884Z,21.20
2018-07-27T23:50:53.315Z,21.20
2018-07-27T23:53:26.779Z,21.10
2018-07-27T23:56:00.217Z,21.10
2018-07-27T23:58:33.679Z,21.10
